sensor_id;sensor_type;location;lat;lon;timestamp;pressure;altitude;pressure_sealevel;temperature;humidity
66742;BME280;53654;54.152;19.432;2023-01-29T00:00:07;102176.31;;;1.80;68.38
66742;BME280;53654;54.152;19.432;2023-01-29T00:02:59;102178.45;;;1.81;68.13
66742;BME280;53654;54.152;19.432;2023-01-29T00:05:28;102172.92;;;1.84;67.74
66742;BME280;53654;54.152;19.432;2023-01-29T00:07:56;102169.95;;;1.87;67.65
66742;BME280;53654;54.152;19.432;2023-01-29T00:10:25;102168.90;;;1.86;67.68
66742;BME280;53654;54.152;19.432;2023-01-29T00:12:53;102170.20;;;1.88;67.80
66742;BME280;53654;54.152;19.432;2023-01-29T00:15:22;102168.14;;;1.88;67.69
66742;BME280;53654;54.152;19.432;2023-01-29T00:17:50;102176.05;;;1.88;67.70
66742;BME280;53654;54.152;19.432;2023-01-29T00:20:18;102180.33;;;1.91;67.48
66742;BME280;53654;54.152;19.432;2023-01-29T00:22:46;102183.41;;;1.94;67.62
66742;BME280;53654;54.152;19.432;2023-01-29T00:25:14;102183.98;;;1.96;67.47
66742;BME280;53654;54.152;19.432;2023-01-29T00:27:43;102191.60;;;1.97;67.69
66742;BME280;53654;54.152;19.432;2023-01-29T00:30:11;102192.98;;;1.97;68.02
66742;BME280;53654;54.152;19.432;2023-01-29T00:32:40;102191.29;;;1.97;68.18
66742;BME280;53654;54.152;19.432;2023-01-29T00:35:10;102194.88;;;1.97;68.62
66742;BME280;53654;54.152;19.432;2023-01-29T00:37:38;102197.58;;;1.96;69.00
66742;BME280;53654;54.152;19.432;2023-01-29T00:40:08;102202.69;;;1.94;69.37
66742;BME280;53654;54.152;19.432;2023-01-29T00:42:36;102201.75;;;1.93;69.85
66742;BME280;53654;54.152;19.432;2023-01-29T00:45:23;102203.04;;;1.88;70.08
66742;BME280;53654;54.152;19.432;2023-01-29T00:47:51;102205.24;;;1.87;70.26
66742;BME280;53654;54.152;19.432;2023-01-29T00:50:19;102207.79;;;1.90;70.64
66742;BME280;53654;54.152;19.432;2023-01-29T00:52:47;102204.68;;;1.89;70.66
66742;BME280;53654;54.152;19.432;2023-01-29T00:55:18;102204.42;;;1.88;70.65
66742;BME280;53654;54.152;19.432;2023-01-29T00:57:47;102208.39;;;1.88;70.99
66742;BME280;53654;54.152;19.432;2023-01-29T01:00:17;102210.15;;;1.89;71.32
66742;BME280;53654;54.152;19.432;2023-01-29T01:02:46;102207.94;;;1.89;71.19
66742;BME280;53654;54.152;19.432;2023-01-29T01:05:33;102198.98;;;1.86;71.27
66742;BME280;53654;54.152;19.432;2023-01-29T01:08:01;102195.48;;;1.84;71.30
66742;BME280;53654;54.152;19.432;2023-01-29T01:10:31;102195.41;;;1.86;71.63
66742;BME280;53654;54.152;19.432;2023-01-29T01:13:02;102199.11;;;1.88;71.88
66742;BME280;53654;54.152;19.432;2023-01-29T01:15:38;102204.20;;;1.87;71.56
66742;BME280;53654;54.152;19.432;2023-01-29T01:18:07;102200.61;;;1.84;71.54
66742;BME280;53654;54.152;19.432;2023-01-29T01:20:35;102209.80;;;1.82;71.68
66742;BME280;53654;54.152;19.432;2023-01-29T01:23:04;102208.77;;;1.82;71.87
66742;BME280;53654;54.152;19.432;2023-01-29T01:25:32;102206.30;;;1.81;71.98
66742;BME280;53654;54.152;19.432;2023-01-29T01:28:00;102201.34;;;1.81;72.25
66742;BME280;53654;54.152;19.432;2023-01-29T01:30:29;102194.29;;;1.82;72.21
66742;BME280;53654;54.152;19.432;2023-01-29T01:32:58;102192.91;;;1.82;72.19
66742;BME280;53654;54.152;19.432;2023-01-29T01:35:26;102192.13;;;1.83;72.32
66742;BME280;53654;54.152;19.432;2023-01-29T01:37:55;102192.14;;;1.83;72.22
66742;BME280;53654;54.152;19.432;2023-01-29T01:40:24;102183.67;;;1.83;72.38
66742;BME280;53654;54.152;19.432;2023-01-29T01:42:56;102179.72;;;1.79;72.70
66742;BME280;53654;54.152;19.432;2023-01-29T01:45:28;102174.11;;;1.74;72.67
66742;BME280;53654;54.152;19.432;2023-01-29T01:48:02;102176.00;;;1.67;72.99
66742;BME280;53654;54.152;19.432;2023-01-29T01:50:44;102172.77;;;1.60;73.12
66742;BME280;53654;54.152;19.432;2023-01-29T01:53:18;102168.20;;;1.55;73.29
66742;BME280;53654;54.152;19.432;2023-01-29T01:55:55;102159.83;;;1.53;73.43
66742;BME280;53654;54.152;19.432;2023-01-29T01:58:33;102155.29;;;1.48;73.66
66742;BME280;53654;54.152;19.432;2023-01-29T02:01:05;102153.86;;;1.44;74.02
66742;BME280;53654;54.152;19.432;2023-01-29T02:03:49;102150.39;;;1.43;74.11
66742;BME280;53654;54.152;19.432;2023-01-29T02:06:40;102142.46;;;1.39;74.11
66742;BME280;53654;54.152;19.432;2023-01-29T02:09:35;102123.08;;;1.40;74.26
66742;BME280;53654;54.152;19.432;2023-01-29T02:12:09;102117.27;;;1.41;74.43
66742;BME280;53654;54.152;19.432;2023-01-29T02:14:39;102113.05;;;1.43;74.54
66742;BME280;53654;54.152;19.432;2023-01-29T02:17:13;102113.39;;;1.43;74.72
66742;BME280;53654;54.152;19.432;2023-01-29T02:31:19;102105.16;;;1.46;74.71
66742;BME280;53654;54.152;19.432;2023-01-29T02:36:43;102103.86;;;1.51;74.69
66742;BME280;53654;54.152;19.432;2023-01-29T02:39:32;102100.64;;;1.52;74.79
66742;BME280;53654;54.152;19.432;2023-01-29T02:42:12;102088.63;;;1.49;74.68
66742;BME280;53654;54.152;19.432;2023-01-29T02:45:08;102087.73;;;1.49;74.51
66742;BME280;53654;54.152;19.432;2023-01-29T02:47:44;102089.61;;;1.45;74.53
66742;BME280;53654;54.152;19.432;2023-01-29T02:53:09;102087.30;;;1.50;74.51
66742;BME280;53654;54.152;19.432;2023-01-29T02:55:53;102081.02;;;1.48;74.28
66742;BME280;53654;54.152;19.432;2023-01-29T03:01:19;102073.81;;;1.52;74.49
66742;BME280;53654;54.152;19.432;2023-01-29T03:03:52;102069.17;;;1.56;74.35
66742;BME280;53654;54.152;19.432;2023-01-29T03:06:36;102070.42;;;1.57;73.97
66742;BME280;53654;54.152;19.432;2023-01-29T03:09:13;102066.69;;;1.58;73.81
66742;BME280;53654;54.152;19.432;2023-01-29T03:11:52;102072.94;;;1.63;73.95
66742;BME280;53654;54.152;19.432;2023-01-29T03:14:31;102073.10;;;1.66;73.80
66742;BME280;53654;54.152;19.432;2023-01-29T03:17:23;102070.70;;;1.67;73.74
66742;BME280;53654;54.152;19.432;2023-01-29T03:19:53;102064.75;;;1.71;73.52
66742;BME280;53654;54.152;19.432;2023-01-29T03:22:22;102065.96;;;1.75;73.32
66742;BME280;53654;54.152;19.432;2023-01-29T03:24:58;102058.30;;;1.80;73.36
66742;BME280;53654;54.152;19.432;2023-01-29T03:27:56;102058.09;;;1.83;73.06
66742;BME280;53654;54.152;19.432;2023-01-29T03:30:52;102059.70;;;1.84;73.05
66742;BME280;53654;54.152;19.432;2023-01-29T03:34:07;102054.61;;;1.86;72.67
66742;BME280;53654;54.152;19.432;2023-01-29T03:36:52;102047.89;;;1.85;72.85
66742;BME280;53654;54.152;19.432;2023-01-29T03:39:26;102045.73;;;1.87;72.52
66742;BME280;53654;54.152;19.432;2023-01-29T03:42:17;102036.64;;;1.88;72.19
66742;BME280;53654;54.152;19.432;2023-01-29T03:45:09;102038.03;;;1.88;72.47
66742;BME280;53654;54.152;19.432;2023-01-29T03:48:15;102036.99;;;1.88;72.48
66742;BME280;53654;54.152;19.432;2023-01-29T03:51:36;102034.17;;;1.87;72.42
66742;BME280;53654;54.152;19.432;2023-01-29T03:54:06;102024.79;;;1.88;72.46
66742;BME280;53654;54.152;19.432;2023-01-29T03:56:54;102018.25;;;1.88;72.26
66742;BME280;53654;54.152;19.432;2023-01-29T04:02:51;102011.63;;;1.83;72.50
66742;BME280;53654;54.152;19.432;2023-01-29T04:05:26;102002.05;;;1.84;72.58
66742;BME280;53654;54.152;19.432;2023-01-29T04:08:15;102000.58;;;1.86;72.36
66742;BME280;53654;54.152;19.432;2023-01-29T04:10:44;101992.74;;;1.88;72.12
66742;BME280;53654;54.152;19.432;2023-01-29T04:13:15;101990.66;;;1.87;71.88
66742;BME280;53654;54.152;19.432;2023-01-29T04:15:52;101991.00;;;1.87;71.74
66742;BME280;53654;54.152;19.432;2023-01-29T04:18:32;101986.52;;;1.87;71.98
66742;BME280;53654;54.152;19.432;2023-01-29T04:21:06;101981.40;;;1.88;71.83
66742;BME280;53654;54.152;19.432;2023-01-29T04:23:34;101977.41;;;1.87;71.78
66742;BME280;53654;54.152;19.432;2023-01-29T04:26:23;101979.83;;;1.84;71.57
66742;BME280;53654;54.152;19.432;2023-01-29T04:29:08;101984.28;;;1.80;72.01
66742;BME280;53654;54.152;19.432;2023-01-29T04:31:55;101982.63;;;1.77;72.10
66742;BME280;53654;54.152;19.432;2023-01-29T04:34:43;101975.37;;;1.77;72.07
66742;BME280;53654;54.152;19.432;2023-01-29T04:42:36;101973.05;;;1.75;72.25
66742;BME280;53654;54.152;19.432;2023-01-29T04:45:13;101962.88;;;1.74;72.43
66742;BME280;53654;54.152;19.432;2023-01-29T04:50:38;101959.13;;;1.75;72.84
66742;BME280;53654;54.152;19.432;2023-01-29T04:53:17;101954.94;;;1.70;72.83
66742;BME280;53654;54.152;19.432;2023-01-29T04:56:11;101947.73;;;1.67;72.91
66742;BME280;53654;54.152;19.432;2023-01-29T04:58:52;101947.71;;;1.67;73.05
66742;BME280;53654;54.152;19.432;2023-01-29T05:01:22;101950.86;;;1.68;73.11
66742;BME280;53654;54.152;19.432;2023-01-29T05:03:57;101952.90;;;1.71;73.08
66742;BME280;53654;54.152;19.432;2023-01-29T05:06:28;101952.30;;;1.73;73.17
66742;BME280;53654;54.152;19.432;2023-01-29T05:08:59;101952.04;;;1.74;73.50
66742;BME280;53654;54.152;19.432;2023-01-29T05:11:31;101955.36;;;1.76;73.44
66742;BME280;53654;54.152;19.432;2023-01-29T05:14:01;101951.11;;;1.76;73.75
66742;BME280;53654;54.152;19.432;2023-01-29T05:16:46;101948.45;;;1.79;73.65
66742;BME280;53654;54.152;19.432;2023-01-29T05:19:16;101952.23;;;1.78;73.59
66742;BME280;53654;54.152;19.432;2023-01-29T05:21:46;101954.45;;;1.78;73.71
66742;BME280;53654;54.152;19.432;2023-01-29T05:24:21;101949.61;;;1.82;73.88
66742;BME280;53654;54.152;19.432;2023-01-29T05:26:51;101947.02;;;1.85;74.25
66742;BME280;53654;54.152;19.432;2023-01-29T05:29:44;101944.02;;;1.87;74.02
66742;BME280;53654;54.152;19.432;2023-01-29T05:32:13;101937.61;;;1.90;73.69
66742;BME280;53654;54.152;19.432;2023-01-29T05:34:42;101935.41;;;1.90;73.44
66742;BME280;53654;54.152;19.432;2023-01-29T05:37:10;101937.70;;;1.92;73.60
66742;BME280;53654;54.152;19.432;2023-01-29T05:39:38;101938.73;;;1.92;73.83
66742;BME280;53654;54.152;19.432;2023-01-29T05:42:06;101938.84;;;1.90;73.65
66742;BME280;53654;54.152;19.432;2023-01-29T05:44:34;101943.79;;;1.89;73.98
66742;BME280;53654;54.152;19.432;2023-01-29T05:47:02;101952.44;;;1.90;73.88
66742;BME280;53654;54.152;19.432;2023-01-29T05:49:31;101951.59;;;1.91;73.45
66742;BME280;53654;54.152;19.432;2023-01-29T05:51:59;101946.70;;;1.89;73.37
66742;BME280;53654;54.152;19.432;2023-01-29T05:54:27;101924.47;;;1.88;73.33
66742;BME280;53654;54.152;19.432;2023-01-29T05:56:55;101931.70;;;1.85;73.23
66742;BME280;53654;54.152;19.432;2023-01-29T05:59:23;101933.14;;;1.82;73.37
66742;BME280;53654;54.152;19.432;2023-01-29T06:01:51;101927.10;;;1.82;73.44
66742;BME280;53654;54.152;19.432;2023-01-29T06:04:19;101927.87;;;1.80;73.63
66742;BME280;53654;54.152;19.432;2023-01-29T06:06:47;101935.77;;;1.80;73.67
66742;BME280;53654;54.152;19.432;2023-01-29T06:09:15;101931.47;;;1.80;73.80
66742;BME280;53654;54.152;19.432;2023-01-29T06:11:43;101934.59;;;1.80;73.72
66742;BME280;53654;54.152;19.432;2023-01-29T06:14:11;101930.20;;;1.82;73.74
66742;BME280;53654;54.152;19.432;2023-01-29T06:16:40;101931.98;;;1.83;73.67
66742;BME280;53654;54.152;19.432;2023-01-29T06:19:08;101938.04;;;1.84;73.60
66742;BME280;53654;54.152;19.432;2023-01-29T06:21:36;101935.32;;;1.85;73.68
66742;BME280;53654;54.152;19.432;2023-01-29T06:24:04;101937.56;;;1.89;73.82
66742;BME280;53654;54.152;19.432;2023-01-29T06:26:32;101936.41;;;1.90;74.12
66742;BME280;53654;54.152;19.432;2023-01-29T06:29:00;101927.76;;;1.92;73.94
66742;BME280;53654;54.152;19.432;2023-01-29T06:31:28;101927.23;;;1.92;74.22
66742;BME280;53654;54.152;19.432;2023-01-29T06:34:06;101922.67;;;1.90;74.25
66742;BME280;53654;54.152;19.432;2023-01-29T06:36:35;101923.75;;;1.88;74.49
66742;BME280;53654;54.152;19.432;2023-01-29T06:39:03;101926.11;;;1.86;74.64
66742;BME280;53654;54.152;19.432;2023-01-29T06:41:32;101933.19;;;1.87;74.81
66742;BME280;53654;54.152;19.432;2023-01-29T06:44:00;101931.46;;;1.87;75.16
66742;BME280;53654;54.152;19.432;2023-01-29T06:46:28;101930.13;;;1.88;74.98
66742;BME280;53654;54.152;19.432;2023-01-29T06:48:58;101930.17;;;1.89;75.09
66742;BME280;53654;54.152;19.432;2023-01-29T06:51:27;101926.70;;;1.88;75.28
66742;BME280;53654;54.152;19.432;2023-01-29T06:53:55;101926.39;;;1.89;75.36
66742;BME280;53654;54.152;19.432;2023-01-29T06:56:23;101924.34;;;1.89;75.44
66742;BME280;53654;54.152;19.432;2023-01-29T06:58:51;101922.36;;;1.91;75.61
66742;BME280;53654;54.152;19.432;2023-01-29T07:01:20;101926.21;;;1.92;75.76
66742;BME280;53654;54.152;19.432;2023-01-29T07:04:02;101927.73;;;1.92;75.87
66742;BME280;53654;54.152;19.432;2023-01-29T07:06:31;101921.73;;;1.92;76.01
66742;BME280;53654;54.152;19.432;2023-01-29T07:09:00;101912.11;;;1.89;75.99
66742;BME280;53654;54.152;19.432;2023-01-29T07:11:29;101908.52;;;1.86;76.39
66742;BME280;53654;54.152;19.432;2023-01-29T07:13:57;101912.08;;;1.84;76.59
66742;BME280;53654;54.152;19.432;2023-01-29T07:16:25;101910.26;;;1.82;76.66
66742;BME280;53654;54.152;19.432;2023-01-29T07:18:54;101906.16;;;1.79;76.86
66742;BME280;53654;54.152;19.432;2023-01-29T07:21:22;101909.41;;;1.79;77.16
66742;BME280;53654;54.152;19.432;2023-01-29T07:23:50;101904.75;;;1.78;77.32
66742;BME280;53654;54.152;19.432;2023-01-29T07:26:19;101904.51;;;1.81;77.65
66742;BME280;53654;54.152;19.432;2023-01-29T07:28:47;101896.70;;;1.83;77.83
66742;BME280;53654;54.152;19.432;2023-01-29T07:31:15;101896.25;;;1.85;77.98
66742;BME280;53654;54.152;19.432;2023-01-29T07:33:43;101896.65;;;1.86;78.08
66742;BME280;53654;54.152;19.432;2023-01-29T07:36:12;101896.45;;;1.85;78.07
66742;BME280;53654;54.152;19.432;2023-01-29T07:38:41;101902.14;;;1.86;78.21
66742;BME280;53654;54.152;19.432;2023-01-29T07:41:10;101899.29;;;1.87;78.24
66742;BME280;53654;54.152;19.432;2023-01-29T07:43:38;101895.94;;;1.89;78.32
66742;BME280;53654;54.152;19.432;2023-01-29T07:46:06;101897.77;;;1.91;78.14
66742;BME280;53654;54.152;19.432;2023-01-29T07:48:35;101892.98;;;1.92;78.42
66742;BME280;53654;54.152;19.432;2023-01-29T07:51:03;101888.59;;;1.90;78.29
66742;BME280;53654;54.152;19.432;2023-01-29T07:53:31;101881.30;;;1.89;78.35
66742;BME280;53654;54.152;19.432;2023-01-29T07:55:59;101877.39;;;1.90;78.60
66742;BME280;53654;54.152;19.432;2023-01-29T07:58:27;101866.58;;;1.90;78.80
66742;BME280;53654;54.152;19.432;2023-01-29T08:00:55;101859.14;;;1.90;78.92
66742;BME280;53654;54.152;19.432;2023-01-29T08:03:23;101862.61;;;1.90;79.07
66742;BME280;53654;54.152;19.432;2023-01-29T08:05:51;101858.08;;;1.89;78.96
66742;BME280;53654;54.152;19.432;2023-01-29T08:08:19;101855.41;;;1.87;78.92
66742;BME280;53654;54.152;19.432;2023-01-29T08:10:47;101851.66;;;1.88;79.23
66742;BME280;53654;54.152;19.432;2023-01-29T08:13:16;101853.25;;;1.93;79.28
66742;BME280;53654;54.152;19.432;2023-01-29T08:15:44;101848.94;;;1.96;79.17
66742;BME280;53654;54.152;19.432;2023-01-29T08:18:13;101843.16;;;1.98;79.12
66742;BME280;53654;54.152;19.432;2023-01-29T08:20:41;101835.77;;;1.99;79.13
66742;BME280;53654;54.152;19.432;2023-01-29T08:23:14;101834.98;;;2.00;79.02
66742;BME280;53654;54.152;19.432;2023-01-29T08:25:43;101830.06;;;2.02;79.01
66742;BME280;53654;54.152;19.432;2023-01-29T08:28:11;101827.01;;;2.03;78.75
66742;BME280;53654;54.152;19.432;2023-01-29T08:30:39;101825.45;;;2.03;78.64
66742;BME280;53654;54.152;19.432;2023-01-29T08:33:08;101826.98;;;2.02;78.73
66742;BME280;53654;54.152;19.432;2023-01-29T08:35:36;101826.09;;;2.01;78.80
66742;BME280;53654;54.152;19.432;2023-01-29T08:38:04;101822.40;;;2.00;78.71
66742;BME280;53654;54.152;19.432;2023-01-29T08:40:33;101821.39;;;2.00;78.83
66742;BME280;53654;54.152;19.432;2023-01-29T08:43:06;101825.94;;;2.02;78.93
66742;BME280;53654;54.152;19.432;2023-01-29T08:45:41;101828.61;;;2.04;79.01
66742;BME280;53654;54.152;19.432;2023-01-29T08:48:09;101831.67;;;2.07;79.10
66742;BME280;53654;54.152;19.432;2023-01-29T08:50:38;101832.34;;;2.10;79.17
66742;BME280;53654;54.152;19.432;2023-01-29T08:53:07;101834.92;;;2.10;78.99
66742;BME280;53654;54.152;19.432;2023-01-29T08:55:37;101834.88;;;2.10;78.87
66742;BME280;53654;54.152;19.432;2023-01-29T08:58:10;101836.77;;;2.10;78.84
66742;BME280;53654;54.152;19.432;2023-01-29T09:00:38;101840.02;;;2.09;78.96
66742;BME280;53654;54.152;19.432;2023-01-29T09:03:06;101836.16;;;2.11;79.03
66742;BME280;53654;54.152;19.432;2023-01-29T09:05:36;101833.35;;;2.10;78.75
66742;BME280;53654;54.152;19.432;2023-01-29T09:08:06;101844.70;;;2.10;78.99
66742;BME280;53654;54.152;19.432;2023-01-29T09:10:35;101841.61;;;2.10;79.07
66742;BME280;53654;54.152;19.432;2023-01-29T09:13:03;101841.77;;;2.09;79.21
66742;BME280;53654;54.152;19.432;2023-01-29T09:15:32;101845.02;;;2.09;79.16
66742;BME280;53654;54.152;19.432;2023-01-29T09:18:04;101843.77;;;2.12;79.25
66742;BME280;53654;54.152;19.432;2023-01-29T09:20:33;101844.95;;;2.15;79.24
66742;BME280;53654;54.152;19.432;2023-01-29T09:23:05;101842.42;;;2.17;79.50
66742;BME280;53654;54.152;19.432;2023-01-29T09:25:33;101837.52;;;2.18;79.33
66742;BME280;53654;54.152;19.432;2023-01-29T09:28:02;101830.45;;;2.19;79.52
66742;BME280;53654;54.152;19.432;2023-01-29T09:30:30;101832.09;;;2.20;79.44
66742;BME280;53654;54.152;19.432;2023-01-29T09:33:00;101833.69;;;2.22;79.38
66742;BME280;53654;54.152;19.432;2023-01-29T09:35:28;101836.90;;;2.24;79.36
66742;BME280;53654;54.152;19.432;2023-01-29T09:37:56;101830.95;;;2.26;79.49
66742;BME280;53654;54.152;19.432;2023-01-29T09:40:31;101825.67;;;2.28;79.25
66742;BME280;53654;54.152;19.432;2023-01-29T09:43:11;101825.84;;;2.28;79.23
66742;BME280;53654;54.152;19.432;2023-01-29T09:45:50;101821.63;;;2.25;79.40
66742;BME280;53654;54.152;19.432;2023-01-29T09:48:21;101826.25;;;2.25;79.35
66742;BME280;53654;54.152;19.432;2023-01-29T09:50:51;101820.80;;;2.26;79.59
66742;BME280;53654;54.152;19.432;2023-01-29T09:56:05;101814.47;;;2.28;79.44
66742;BME280;53654;54.152;19.432;2023-01-29T09:58:39;101803.36;;;2.25;79.41
66742;BME280;53654;54.152;19.432;2023-01-29T10:01:48;101795.23;;;2.24;79.37
66742;BME280;53654;54.152;19.432;2023-01-29T10:04:37;101791.73;;;2.19;79.73
66742;BME280;53654;54.152;19.432;2023-01-29T10:10:08;101789.63;;;2.18;79.79
66742;BME280;53654;54.152;19.432;2023-01-29T10:13:27;101783.61;;;2.18;80.08
66742;BME280;53654;54.152;19.432;2023-01-29T10:16:06;101770.38;;;2.19;80.18
66742;BME280;53654;54.152;19.432;2023-01-29T10:24:43;101745.90;;;2.27;79.94
66742;BME280;53654;54.152;19.432;2023-01-29T10:27:17;101747.14;;;2.23;79.70
66742;BME280;53654;54.152;19.432;2023-01-29T10:29:47;101743.23;;;2.24;79.71
66742;BME280;53654;54.152;19.432;2023-01-29T10:32:20;101740.27;;;2.23;79.88
66742;BME280;53654;54.152;19.432;2023-01-29T10:34:57;101729.24;;;2.23;79.64
66742;BME280;53654;54.152;19.432;2023-01-29T10:37:39;101730.27;;;2.23;79.87
66742;BME280;53654;54.152;19.432;2023-01-29T10:42:55;101741.12;;;2.23;79.72
66742;BME280;53654;54.152;19.432;2023-01-29T10:45:42;101739.64;;;2.25;79.88
66742;BME280;53654;54.152;19.432;2023-01-29T10:48:38;101735.40;;;2.26;79.75
66742;BME280;53654;54.152;19.432;2023-01-29T10:51:33;101719.95;;;2.28;79.91
66742;BME280;53654;54.152;19.432;2023-01-29T10:57:45;101704.25;;;2.18;80.05
66742;BME280;53654;54.152;19.432;2023-01-29T11:00:23;101708.02;;;2.18;80.23
66742;BME280;53654;54.152;19.432;2023-01-29T11:02:52;101701.88;;;2.19;80.34
66742;BME280;53654;54.152;19.432;2023-01-29T11:05:35;101698.09;;;2.23;80.31
66742;BME280;53654;54.152;19.432;2023-01-29T11:08:15;101698.04;;;2.26;80.62
66742;BME280;53654;54.152;19.432;2023-01-29T11:11:07;101701.48;;;2.31;80.25
66742;BME280;53654;54.152;19.432;2023-01-29T11:14:00;101697.18;;;2.31;80.06
66742;BME280;53654;54.152;19.432;2023-01-29T11:16:41;101693.98;;;2.33;80.42
66742;BME280;53654;54.152;19.432;2023-01-29T11:19:10;101696.65;;;2.35;80.16
66742;BME280;53654;54.152;19.432;2023-01-29T11:21:58;101690.90;;;2.37;80.10
66742;BME280;53654;54.152;19.432;2023-01-29T11:24:28;101675.89;;;2.37;80.21
66742;BME280;53654;54.152;19.432;2023-01-29T11:26:58;101678.11;;;2.41;80.32
66742;BME280;53654;54.152;19.432;2023-01-29T11:29:31;101675.64;;;2.44;80.14
66742;BME280;53654;54.152;19.432;2023-01-29T11:32:04;101678.42;;;2.44;80.04
66742;BME280;53654;54.152;19.432;2023-01-29T11:34:33;101672.62;;;2.41;80.03
66742;BME280;53654;54.152;19.432;2023-01-29T11:37:03;101674.10;;;2.39;80.21
66742;BME280;53654;54.152;19.432;2023-01-29T11:39:43;101656.79;;;2.37;80.19
66742;BME280;53654;54.152;19.432;2023-01-29T11:42:19;101648.30;;;2.40;80.67
66742;BME280;53654;54.152;19.432;2023-01-29T11:44:48;101652.20;;;2.43;80.49
66742;BME280;53654;54.152;19.432;2023-01-29T11:47:19;101650.73;;;2.45;80.46
66742;BME280;53654;54.152;19.432;2023-01-29T11:49:57;101647.02;;;2.47;80.39
66742;BME280;53654;54.152;19.432;2023-01-29T11:52:36;101649.38;;;2.46;80.46
66742;BME280;53654;54.152;19.432;2023-01-29T11:57:46;101635.73;;;2.45;80.39
66742;BME280;53654;54.152;19.432;2023-01-29T12:00:29;101636.36;;;2.43;80.12
66742;BME280;53654;54.152;19.432;2023-01-29T12:03:04;101640.33;;;2.44;80.40
66742;BME280;53654;54.152;19.432;2023-01-29T12:05:39;101642.28;;;2.49;80.58
66742;BME280;53654;54.152;19.432;2023-01-29T12:08:16;101643.84;;;2.54;80.25
66742;BME280;53654;54.152;19.432;2023-01-29T12:10:44;101638.46;;;2.57;80.21
66742;BME280;53654;54.152;19.432;2023-01-29T12:15:42;101630.21;;;2.58;80.01
66742;BME280;53654;54.152;19.432;2023-01-29T12:21:06;101626.52;;;2.65;79.92
66742;BME280;53654;54.152;19.432;2023-01-29T12:27:00;101625.15;;;2.65;79.79
66742;BME280;53654;54.152;19.432;2023-01-29T12:29:44;101624.92;;;2.64;79.92
66742;BME280;53654;54.152;19.432;2023-01-29T12:40:39;101618.27;;;2.70;79.91
66742;BME280;53654;54.152;19.432;2023-01-29T12:43:25;101602.89;;;2.74;79.85
66742;BME280;53654;54.152;19.432;2023-01-29T12:45:58;101590.05;;;2.76;79.83
66742;BME280;53654;54.152;19.432;2023-01-29T12:48:32;101584.73;;;2.81;79.91
66742;BME280;53654;54.152;19.432;2023-01-29T12:51:10;101584.20;;;2.86;79.69
66742;BME280;53654;54.152;19.432;2023-01-29T12:53:47;101582.38;;;2.87;79.68
66742;BME280;53654;54.152;19.432;2023-01-29T12:56:34;101583.91;;;2.91;79.66
66742;BME280;53654;54.152;19.432;2023-01-29T13:02:17;101581.32;;;2.91;79.41
66742;BME280;53654;54.152;19.432;2023-01-29T13:04:58;101572.98;;;2.95;79.74
66742;BME280;53654;54.152;19.432;2023-01-29T13:07:32;101570.71;;;2.99;79.69
66742;BME280;53654;54.152;19.432;2023-01-29T13:10:09;101568.39;;;3.02;79.73
66742;BME280;53654;54.152;19.432;2023-01-29T13:12:47;101560.58;;;3.05;79.49
66742;BME280;53654;54.152;19.432;2023-01-29T13:17:53;101549.02;;;3.10;78.97
66742;BME280;53654;54.152;19.432;2023-01-29T13:20:33;101544.60;;;3.11;79.09
66742;BME280;53654;54.152;19.432;2023-01-29T13:23:18;101549.84;;;3.13;79.01
66742;BME280;53654;54.152;19.432;2023-01-29T13:25:51;101548.33;;;3.14;78.86
66742;BME280;53654;54.152;19.432;2023-01-29T13:28:23;101550.52;;;3.17;78.91
66742;BME280;53654;54.152;19.432;2023-01-29T13:31:13;101552.19;;;3.21;78.59
66742;BME280;53654;54.152;19.432;2023-01-29T13:34:35;101550.84;;;3.17;78.40
66742;BME280;53654;54.152;19.432;2023-01-29T13:36:44;101554.63;;;3.12;78.46
66742;BME280;53654;54.152;19.432;2023-01-29T13:39:28;101556.20;;;3.13;78.56
66742;BME280;53654;54.152;19.432;2023-01-29T13:41:59;101559.02;;;3.15;78.51
66742;BME280;53654;54.152;19.432;2023-01-29T13:44:38;101564.33;;;3.18;78.68
66742;BME280;53654;54.152;19.432;2023-01-29T13:47:10;101560.09;;;3.20;78.60
66742;BME280;53654;54.152;19.432;2023-01-29T13:49:43;101556.70;;;3.22;78.43
66742;BME280;53654;54.152;19.432;2023-01-29T13:52:23;101559.72;;;3.25;78.49
66742;BME280;53654;54.152;19.432;2023-01-29T13:54:56;101563.70;;;3.25;78.22
66742;BME280;53654;54.152;19.432;2023-01-29T14:00:03;101554.87;;;3.29;78.27
66742;BME280;53654;54.152;19.432;2023-01-29T14:02:32;101551.39;;;3.28;78.29
66742;BME280;53654;54.152;19.432;2023-01-29T14:10:33;101541.10;;;3.25;78.43
66742;BME280;53654;54.152;19.432;2023-01-29T14:18:47;101544.58;;;3.25;78.35
66742;BME280;53654;54.152;19.432;2023-01-29T14:23:50;101549.48;;;3.33;78.30
66742;BME280;53654;54.152;19.432;2023-01-29T14:32:08;101550.79;;;3.41;77.89
66742;BME280;53654;54.152;19.432;2023-01-29T14:34:48;101556.59;;;3.39;77.92
66742;BME280;53654;54.152;19.432;2023-01-29T14:37:34;101554.95;;;3.42;77.90
66742;BME280;53654;54.152;19.432;2023-01-29T14:45:28;101547.01;;;3.46;77.84
66742;BME280;53654;54.152;19.432;2023-01-29T14:48:37;101545.54;;;3.49;77.58
66742;BME280;53654;54.152;19.432;2023-01-29T14:51:12;101537.18;;;3.47;77.64
66742;BME280;53654;54.152;19.432;2023-01-29T14:54:13;101531.52;;;3.48;77.57
66742;BME280;53654;54.152;19.432;2023-01-29T14:56:56;101533.72;;;3.46;77.53
66742;BME280;53654;54.152;19.432;2023-01-29T14:59:34;101526.33;;;3.47;77.82
66742;BME280;53654;54.152;19.432;2023-01-29T15:02:15;101525.35;;;3.49;77.66
66742;BME280;53654;54.152;19.432;2023-01-29T15:04:52;101517.88;;;3.52;77.74
66742;BME280;53654;54.152;19.432;2023-01-29T15:07:38;101517.29;;;3.56;77.47
66742;BME280;53654;54.152;19.432;2023-01-29T15:10:20;101511.91;;;3.55;77.41